Time;durP1;ratioP1;P1;durP2;ratioP2;P2;SDS_P1;SDS_P2;PMS_P1;PMS_P2;Temp;Humidity;BMP_temperature;BMP_pressure;BME280_temperature;BME280_humidity;BME280_pressure;Samples;Min_cycle;Max_cycle;Signal;HPM_P1;HPM_P2
2023/10/14 00:01:35;;;;;;;7.75;2.90;;;;;;;;;;4987996;28;20050;-88
2023/10/14 00:04:09;;;;;;;7.13;3.00;;;;;;;;;;4988496;28;20054;-87
2023/10/14 00:06:41;;;;;;;4.90;2.55;;;;;;;;;;4994266;28;20077;-88
2023/10/14 00:09:11;;;;;;;5.63;3.08;;;;;;;;;;4994631;28;20053;-90
2023/10/14 00:11:51;;;;;;;9.00;2.50;;;;;;;;;;4992865;28;20055;-89
2023/10/14 00:14:18;;;;;;;4.75;2.60;;;;;;;;;;4990652;28;20576;-89
2023/10/14 00:16:52;;;;;;;9.18;2.67;;;;;;;;;;4990801;28;20410;-90
2023/10/14 00:19:20;;;;;;;2.92;2.60;;;;;;;;;;4990470;28;20080;-88
2023/10/14 00:21:49;;;;;;;7.28;2.70;;;;;;;;;;4987363;28;20054;-90
2023/10/14 00:24:26;;;;;;;6.25;2.70;;;;;;;;;;4987809;28;20042;-89
2023/10/14 00:26:55;;;;;;;7.10;3.22;;;;;;;;;;4998667;28;20057;-90
2023/10/14 00:29:22;;;;;;;10.10;2.97;;;;;;;;;;4990907;28;20050;-87
2023/10/14 00:31:51;;;;;;;6.30;2.60;;;;;;;;;;4999324;28;20053;-89
2023/10/14 00:34:22;;;;;;;8.50;2.40;;;;;;;;;;4989817;28;20047;-82
2023/10/14 00:36:50;;;;;;;8.30;2.88;;;;;;;;;;4993693;28;20050;-89
2023/10/14 00:39:24;;;;;;;7.85;3.10;;;;;;;;;;4995162;28;20057;-89
2023/10/14 00:41:52;;;;;;;4.85;2.90;;;;;;;;;;4992048;28;20053;-89
2023/10/14 00:44:20;;;;;;;8.20;3.25;;;;;;;;;;4989719;28;20081;-89
2023/10/14 00:46:50;;;;;;;10.02;3.55;;;;;;;;;;4987069;28;20062;-89
2023/10/14 00:49:21;;;;;;;8.63;2.60;;;;;;;;;;4988644;28;20058;-90
2023/10/14 00:51:53;;;;;;;8.60;3.63;;;;;;;;;;5007082;28;20049;-92
2023/10/14 00:54:37;;;;;;;8.48;3.10;;;;;;;;;;4989273;28;20050;-88
2023/10/14 00:57:20;;;;;;;8.23;3.35;;;;;;;;;;5003867;28;20062;-88
2023/10/14 00:59:49;;;;;;;11.93;3.05;;;;;;;;;;4991507;28;20053;-90
2023/10/14 01:02:26;;;;;;;18.45;4.55;;;;;;;;;;4990058;28;20061;-90
2023/10/14 01:04:54;;;;;;;7.10;3.13;;;;;;;;;;4992759;28;20169;-89
2023/10/14 01:07:21;;;;;;;5.60;3.45;;;;;;;;;;4987961;28;20109;-90
2023/10/14 01:09:52;;;;;;;8.43;3.83;;;;;;;;;;4989785;28;20124;-90
2023/10/14 01:12:35;;;;;;;10.98;4.35;;;;;;;;;;4988802;28;20116;-91
2023/10/14 01:15:11;;;;;;;6.93;3.97;;;;;;;;;;4993653;28;20049;-89
2023/10/14 01:17:41;;;;;;;6.50;3.75;;;;;;;;;;4989797;28;20058;-90
2023/10/14 01:22:51;;;;;;;6.88;3.90;;;;;;;;;;5003400;28;20050;-89
2023/10/14 01:25:19;;;;;;;4.82;3.63;;;;;;;;;;4987189;28;20043;-89
2023/10/14 01:27:46;;;;;;;9.57;4.18;;;;;;;;;;4990104;28;20403;-89
2023/10/14 01:30:19;;;;;;;7.43;3.72;;;;;;;;;;4989387;28;20058;-89
2023/10/14 01:35:25;;;;;;;6.95;4.05;;;;;;;;;;5003091;28;20050;-91
2023/10/14 01:37:53;;;;;;;9.15;4.03;;;;;;;;;;4989592;28;20053;-89
2023/10/14 01:42:56;;;;;;;12.98;4.43;;;;;;;;;;5003136;28;20096;-90
2023/10/14 01:45:28;;;;;;;7.75;3.97;;;;;;;;;;4987422;28;20054;-89
2023/10/14 01:50:38;;;;;;;4.50;3.92;;;;;;;;;;5011073;28;20077;-89
2023/10/14 01:53:11;;;;;;;14.60;4.22;;;;;;;;;;4985766;28;20054;-89
2023/10/14 01:55:41;;;;;;;10.05;4.15;;;;;;;;;;4989255;28;20053;-89
2023/10/14 01:58:21;;;;;;;5.55;4.00;;;;;;;;;;4988854;28;20101;-88
2023/10/14 02:00:52;;;;;;;6.13;3.85;;;;;;;;;;4992109;28;20062;-89
2023/10/14 02:03:23;;;;;;;9.60;3.90;;;;;;;;;;4986249;28;20491;-89
2023/10/14 02:05:53;;;;;;;11.20;4.50;;;;;;;;;;4988642;28;20057;-88
2023/10/14 02:08:21;;;;;;;15.43;4.40;;;;;;;;;;4986340;28;20058;-88
2023/10/14 02:10:54;;;;;;;6.57;4.07;;;;;;;;;;4988039;28;20077;-88
2023/10/14 02:13:21;;;;;;;10.05;4.88;;;;;;;;;;4986615;28;20046;-89
2023/10/14 02:15:51;;;;;;;8.63;4.60;;;;;;;;;;4996258;28;20458;-89
2023/10/14 02:18:20;;;;;;;9.23;4.05;;;;;;;;;;4988003;28;20050;-89
2023/10/14 02:20:57;;;;;;;9.95;4.13;;;;;;;;;;4984894;28;20054;-89
2023/10/14 02:23:29;;;;;;;7.25;3.83;;;;;;;;;;4992889;28;20046;-88
2023/10/14 02:25:58;;;;;;;9.35;3.95;;;;;;;;;;4988599;28;20054;-88
2023/10/14 02:28:39;;;;;;;5.97;3.50;;;;;;;;;;4988473;28;20120;-89
2023/10/14 02:31:17;;;;;;;8.80;4.40;;;;;;;;;;4996049;28;20157;-88
2023/10/14 02:33:48;;;;;;;9.77;3.97;;;;;;;;;;4989096;28;20137;-88
2023/10/14 02:36:15;;;;;;;7.88;4.03;;;;;;;;;;4988445;28;20053;-89
2023/10/14 02:38:53;;;;;;;10.40;4.35;;;;;;;;;;4988582;28;20050;-90
2023/10/14 02:41:21;;;;;;;7.18;3.92;;;;;;;;;;4988081;28;20050;-92
2023/10/14 02:43:49;;;;;;;15.80;4.40;;;;;;;;;;4988267;28;20111;-89
2023/10/14 02:46:20;;;;;;;11.55;4.32;;;;;;;;;;4987610;28;20120;-88
2023/10/14 02:48:54;;;;;;;8.45;3.70;;;;;;;;;;4984817;28;20125;-87
2023/10/14 02:51:31;;;;;;;8.48;3.88;;;;;;;;;;4985732;28;20101;-88
2023/10/14 02:54:04;;;;;;;11.00;4.10;;;;;;;;;;4988314;28;20402;-88
2023/10/14 02:56:33;;;;;;;8.25;4.18;;;;;;;;;;4986304;28;20053;-88
2023/10/14 02:59:00;;;;;;;16.40;4.38;;;;;;;;;;4990360;28;20054;-91
2023/10/14 03:01:31;;;;;;;12.88;4.18;;;;;;;;;;4994370;28;20495;-91
2023/10/14 03:04:08;;;;;;;5.93;3.40;;;;;;;;;;4998381;28;20141;-90
2023/10/14 03:06:46;;;;;;;5.90;3.60;;;;;;;;;;4995024;28;20056;-92
2023/10/14 03:09:17;;;;;;;7.95;3.58;;;;;;;;;;4992582;28;20057;-88
2023/10/14 03:11:48;;;;;;;13.02;3.88;;;;;;;;;;5000557;28;20053;-88
2023/10/14 03:14:16;;;;;;;12.68;3.90;;;;;;;;;;4992211;28;20046;-84
2023/10/14 03:16:44;;;;;;;9.77;3.67;;;;;;;;;;4993070;28;20572;-86
2023/10/14 03:19:16;;;;;;;5.47;3.30;;;;;;;;;;4989203;28;20047;-92
2023/10/14 03:21:58;;;;;;;11.52;4.13;;;;;;;;;;4989049;28;20461;-89
2023/10/14 03:24:29;;;;;;;7.18;4.13;;;;;;;;;;4990063;28;20050;-87
2023/10/14 03:27:02;;;;;;;13.02;4.22;;;;;;;;;;4996662;28;20487;-85
2023/10/14 03:29:30;;;;;;;9.20;4.07;;;;;;;;;;4992096;28;20050;-86
2023/10/14 03:31:57;;;;;;;10.50;3.63;;;;;;;;;;4991501;28;20081;-88
2023/10/14 03:34:30;;;;;;;10.98;4.25;;;;;;;;;;4991410;28;20080;-85
2023/10/14 03:37:00;;;;;;;8.23;3.85;;;;;;;;;;4999358;28;20053;-86
2023/10/14 03:39:41;;;;;;;9.52;4.03;;;;;;;;;;4999292;28;20046;-84
2023/10/14 03:42:13;;;;;;;6.40;3.78;;;;;;;;;;4991138;28;20140;-89
2023/10/14 03:44:41;;;;;;;13.38;4.03;;;;;;;;;;4996308;28;20407;-87
2023/10/14 03:47:15;;;;;;;10.32;3.78;;;;;;;;;;4987556;28;20054;-87
2023/10/14 03:49:43;;;;;;;8.65;4.15;;;;;;;;;;4987892;28;20046;-86
2023/10/14 03:52:12;;;;;;;9.93;3.83;;;;;;;;;;4987539;28;20058;-86
2023/10/14 03:54:44;;;;;;;10.05;3.78;;;;;;;;;;4991117;28;20077;-85
2023/10/14 03:57:17;;;;;;;11.55;3.78;;;;;;;;;;4998851;28;20046;-83
2023/10/14 03:59:48;;;;;;;8.85;4.07;;;;;;;;;;5005280;28;20056;-85
2023/10/14 04:02:19;;;;;;;6.95;3.58;;;;;;;;;;4995710;28;20104;-91
2023/10/14 04:04:46;;;;;;;11.85;4.25;;;;;;;;;;5009155;28;20077;-89
2023/10/14 04:07:15;;;;;;;7.00;3.50;;;;;;;;;;4990495;28;20449;-88
2023/10/14 04:09:50;;;;;;;13.13;4.00;;;;;;;;;;4987075;28;20096;-88
2023/10/14 04:12:36;;;;;;;7.85;3.55;;;;;;;;;;4990429;28;20144;-87
2023/10/14 04:17:38;;;;;;;7.80;3.80;;;;;;;;;;5015516;28;20053;-87
2023/10/14 04:22:40;;;;;;;80.72;8.70;;;;;;;;;;5008135;28;20045;-85
2023/10/14 04:27:45;;;;;;;11.05;3.80;;;;;;;;;;5004653;28;20046;-86
2023/10/14 04:30:39;;;;;;;17.63;4.07;;;;;;;;;;4995148;28;20057;-87
2023/10/14 04:35:33;;;;;;;9.43;3.58;;;;;;;;;;5006200;28;20050;-87
2023/10/14 04:38:17;;;;;;;13.00;3.58;;;;;;;;;;5015780;28;20045;-86
2023/10/14 04:40:53;;;;;;;6.47;3.47;;;;;;;;;;4993864;28;20503;-86
2023/10/14 04:45:55;;;;;;;6.43;3.58;;;;;;;;;;5015271;28;20134;-93
2023/10/14 04:48:35;;;;;;;15.15;3.72;;;;;;;;;;4997585;28;20388;-90
2023/10/14 04:51:08;;;;;;;7.32;3.88;;;;;;;;;;4990586;28;20108;-89
2023/10/14 04:53:36;;;;;;;9.77;4.07;;;;;;;;;;4987132;28;20462;-88
2023/10/14 04:56:30;;;;;;;9.10;4.28;;;;;;;;;;4986791;28;20487;-88
2023/10/14 04:58:57;;;;;;;10.65;5.03;;;;;;;;;;4992529;28;20050;-89
2023/10/14 05:01:25;;;;;;;7.55;3.88;;;;;;;;;;4988484;28;20050;-87
2023/10/14 05:03:57;;;;;;;11.15;4.55;;;;;;;;;;4991856;28;20050;-89
2023/10/14 05:06:39;;;;;;;15.15;4.93;;;;;;;;;;4988361;28;20129;-89
2023/10/14 05:09:10;;;;;;;11.15;3.95;;;;;;;;;;4990338;28;20411;-88
2023/10/14 05:11:38;;;;;;;11.27;4.50;;;;;;;;;;4989953;28;20050;-88
2023/10/14 05:14:14;;;;;;;12.18;4.18;;;;;;;;;;4989647;28;20100;-88
2023/10/14 05:16:53;;;;;;;8.75;4.53;;;;;;;;;;4993772;28;20054;-90
2023/10/14 05:19:30;;;;;;;10.77;4.82;;;;;;;;;;4994443;28;20080;-87
2023/10/14 05:22:05;;;;;;;10.13;4.65;;;;;;;;;;4988562;28;20129;-87
2023/10/14 05:24:32;;;;;;;9.65;4.38;;;;;;;;;;4989055;28;20356;-84
2023/10/14 05:27:00;;;;;;;14.00;4.63;;;;;;;;;;5000379;28;20067;-86
2023/10/14 05:29:28;;;;;;;9.68;4.60;;;;;;;;;;4994038;28;20062;-87
2023/10/14 05:32:14;;;;;;;9.43;4.40;;;;;;;;;;4987634;28;20050;-88
2023/10/14 05:34:43;;;;;;;11.70;4.72;;;;;;;;;;4986623;28;20124;-91
2023/10/14 05:37:13;;;;;;;12.27;4.40;;;;;;;;;;5002776;28;20459;-87
2023/10/14 05:39:41;;;;;;;13.30;4.80;;;;;;;;;;4990215;28;20052;-86
2023/10/14 05:42:21;;;;;;;7.45;4.20;;;;;;;;;;4988735;28;20054;-86
2023/10/14 05:44:49;;;;;;;12.43;4.80;;;;;;;;;;4990447;28;20115;-86
2023/10/14 05:47:18;;;;;;;11.23;4.55;;;;;;;;;;4989190;28;20050;-89
2023/10/14 05:49:45;;;;;;;9.40;4.05;;;;;;;;;;4986791;28;20112;-87
2023/10/14 05:52:13;;;;;;;11.13;4.50;;;;;;;;;;4997746;28;20466;-87
2023/10/14 05:54:45;;;;;;;13.45;4.90;;;;;;;;;;5006011;28;20042;-88
2023/10/14 05:57:12;;;;;;;11.20;4.53;;;;;;;;;;4996032;28;20049;-86
2023/10/14 05:59:41;;;;;;;10.68;4.80;;;;;;;;;;4989800;28;20057;-87
2023/10/14 06:02:09;;;;;;;9.32;5.20;;;;;;;;;;4988450;28;20444;-86
2023/10/14 06:04:39;;;;;;;12.30;4.65;;;;;;;;;;4989002;28;20052;-88
2023/10/14 06:07:14;;;;;;;12.00;4.05;;;;;;;;;;4989883;28;20061;-88
2023/10/14 06:09:48;;;;;;;11.07;5.00;;;;;;;;;;4989192;28;20487;-86
2023/10/14 06:12:16;;;;;;;8.77;4.97;;;;;;;;;;4988151;28;20053;-87
2023/10/14 06:14:45;;;;;;;13.80;4.82;;;;;;;;;;4986091;28;20097;-88
2023/10/14 06:17:13;;;;;;;14.45;4.97;;;;;;;;;;4988868;28;20058;-88
2023/10/14 06:19:42;;;;;;;17.58;4.95;;;;;;;;;;4988732;28;20122;-87
2023/10/14 06:22:13;;;;;;;9.27;4.60;;;;;;;;;;4996569;28;20057;-88
2023/10/14 06:24:42;;;;;;;8.15;4.47;;;;;;;;;;4996722;28;20395;-88
2023/10/14 06:27:20;;;;;;;10.07;5.00;;;;;;;;;;4988894;28;20402;-88
2023/10/14 06:29:49;;;;;;;13.77;4.53;;;;;;;;;;4997418;28;20058;-88
2023/10/14 06:32:16;;;;;;;11.27;5.13;;;;;;;;;;5005305;28;20136;-87
2023/10/14 06:34:57;;;;;;;8.80;4.63;;;;;;;;;;4989005;28;20502;-87
2023/10/14 06:37:26;;;;;;;13.68;4.68;;;;;;;;;;4988300;28;20119;-87
2023/10/14 06:39:56;;;;;;;7.30;4.22;;;;;;;;;;4990983;28;20050;-88
2023/10/14 06:42:26;;;;;;;10.20;3.65;;;;;;;;;;4987563;28;20072;-88
2023/10/14 06:44:55;;;;;;;10.15;3.92;;;;;;;;;;4984914;28;20138;-88
2023/10/14 06:47:22;;;;;;;8.52;3.80;;;;;;;;;;4988612;28;20086;-88
2023/10/14 06:49:50;;;;;;;11.15;4.13;;;;;;;;;;4996708;28;20064;-87
2023/10/14 06:52:18;;;;;;;9.07;3.60;;;;;;;;;;4985613;28;20077;-87
2023/10/14 06:54:47;;;;;;;7.72;3.65;;;;;;;;;;4988742;28;20557;-89
2023/10/14 06:57:15;;;;;;;10.88;3.92;;;;;;;;;;4988634;28;20096;-86
2023/10/14 06:59:42;;;;;;;9.15;3.70;;;;;;;;;;4996671;28;20046;-88
2023/10/14 07:02:10;;;;;;;10.93;3.75;;;;;;;;;;4996490;28;20050;-88
2023/10/14 07:04:38;;;;;;;15.23;4.00;;;;;;;;;;4992916;28;20042;-88
2023/10/14 07:07:09;;;;;;;6.40;3.60;;;;;;;;;;4984874;28;20121;-88
2023/10/14 07:09:39;;;;;;;13.60;3.85;;;;;;;;;;4988627;28;20099;-87
2023/10/14 07:12:13;;;;;;;7.38;3.83;;;;;;;;;;4989006;28;20054;-88
2023/10/14 07:14:44;;;;;;;7.38;3.70;;;;;;;;;;4985261;28;20089;-88
2023/10/14 07:17:17;;;;;;;7.55;4.15;;;;;;;;;;4993042;28;20058;-88
2023/10/14 07:19:46;;;;;;;8.40;3.90;;;;;;;;;;5002103;28;20065;-88
2023/10/14 07:22:20;;;;;;;8.45;4.18;;;;;;;;;;4985110;28;20050;-88
2023/10/14 07:24:48;;;;;;;8.73;4.25;;;;;;;;;;4988437;28;20056;-88
2023/10/14 07:27:17;;;;;;;10.30;4.47;;;;;;;;;;5005400;28;20050;-88
2023/10/14 07:29:46;;;;;;;9.20;5.40;;;;;;;;;;4992019;28;20046;-87
2023/10/14 07:32:19;;;;;;;7.45;4.38;;;;;;;;;;4984673;28;20133;-88
2023/10/14 07:34:53;;;;;;;7.57;4.03;;;;;;;;;;4996812;28;20407;-94
2023/10/14 07:37:20;;;;;;;7.87;2.03;;;;;;;;;;5014996;28;20112;-90
2023/10/14 07:39:53;;;;;;;3.92;0.80;;;;;;;;;;4989543;28;20561;-96
2023/10/14 07:42:21;;;;;;;3.50;0.75;;;;;;;;;;4990737;28;20061;-94
2023/10/14 07:44:49;;;;;;;6.25;1.10;;;;;;;;;;4991009;28;20059;-90
2023/10/14 07:47:17;;;;;;;5.88;0.80;;;;;;;;;;4997565;28;20054;-95
2023/10/14 07:49:44;;;;;;;0.85;0.70;;;;;;;;;;4994799;28;20045;-92
2023/10/14 07:52:14;;;;;;;1.98;0.40;;;;;;;;;;5011101;28;20060;-91
2023/10/14 07:54:42;;;;;;;6.82;0.45;;;;;;;;;;5002575;28;20066;-93
2023/10/14 07:57:13;;;;;;;1.25;0.30;;;;;;;;;;4994895;28;20061;-92
2023/10/14 07:59:43;;;;;;;5.53;0.93;;;;;;;;;;5020194;23;20053;-84
2023/10/14 08:02:13;;;;;;;7.45;0.73;;;;;;;;;;5039379;28;20056;-84
2023/10/14 08:04:45;;;;;;;1.13;0.30;;;;;;;;;;5052503;28;20079;-82
2023/10/14 08:07:14;;;;;;;1.02;0.30;;;;;;;;;;5044584;28;20502;-83
2023/10/14 08:09:41;;;;;;;0.80;0.30;;;;;;;;;;5043963;28;20053;-83
2023/10/14 08:12:09;;;;;;;3.83;0.20;;;;;;;;;;5042648;28;20053;-84
2023/10/14 08:14:36;;;;;;;2.72;1.02;;;;;;;;;;5065325;28;20478;-83
2023/10/14 08:17:11;;;;;;;0.70;0.25;;;;;;;;;;5069765;28;20419;-83
2023/10/14 08:19:39;;;;;;;1.58;0.50;;;;;;;;;;5046996;28;20056;-84
2023/10/14 08:22:08;;;;;;;2.90;0.40;;;;;;;;;;5052711;28;20045;-84
2023/10/14 08:24:38;;;;;;;0.73;0.15;;;;;;;;;;5052519;28;20205;-84
2023/10/14 08:27:05;;;;;;;40.67;3.80;;;;;;;;;;5052771;28;20057;-84
2023/10/14 08:29:32;;;;;;;20.90;1.75;;;;;;;;;;5054145;28;20581;-84
2023/10/14 08:31:59;;;;;;;0.85;0.20;;;;;;;;;;5052956;28;20068;-85
2023/10/14 08:34:27;;;;;;;0.73;0.00;;;;;;;;;;5045221;28;20421;-84
2023/10/14 08:36:56;;;;;;;0.95;0.10;;;;;;;;;;5054160;28;20045;-85
2023/10/14 08:39:23;;;;;;;4.65;0.70;;;;;;;;;;5050484;28;20052;-84
2023/10/14 08:41:54;;;;;;;4.97;0.32;;;;;;;;;;5051916;28;20139;-84
2023/10/14 08:44:24;;;;;;;6.57;0.28;;;;;;;;;;5070088;28;20052;-84
2023/10/14 08:46:52;;;;;;;2.58;0.40;;;;;;;;;;5064105;28;20045;-83
2023/10/14 08:49:23;;;;;;;0.40;0.30;;;;;;;;;;5062962;28;20103;-83
2023/10/14 08:51:51;;;;;;;0.95;0.10;;;;;;;;;;5041708;28;20041;-83
2023/10/14 08:54:25;;;;;;;0.40;0.20;;;;;;;;;;5047082;28;20465;-85
2023/10/14 08:56:53;;;;;;;0.28;0.10;;;;;;;;;;5048299;28;20045;-84
2023/10/14 08:59:21;;;;;;;0.22;0.10;;;;;;;;;;5064875;28;20555;-84
2023/10/14 09:01:54;;;;;;;1.23;0.20;;;;;;;;;;5040826;28;20053;-85
2023/10/14 09:04:30;;;;;;;0.50;0.17;;;;;;;;;;5040888;28;20114;-83
2023/10/14 09:07:01;;;;;;;1.27;0.40;;;;;;;;;;5042444;28;20053;-84
2023/10/14 09:09:31;;;;;;;1.60;0.47;;;;;;;;;;5061548;28;20053;-83
2023/10/14 09:12:07;;;;;;;0.30;0.20;;;;;;;;;;5040716;28;20495;-84
2023/10/14 09:14:34;;;;;;;0.40;0.38;;;;;;;;;;5042150;28;20045;-83
2023/10/14 09:17:06;;;;;;;1.17;0.30;;;;;;;;;;5039238;28;20044;-84
2023/10/14 09:19:45;;;;;;;2.55;0.40;;;;;;;;;;5031618;28;20052;-83
2023/10/14 09:22:26;;;;;;;0.95;0.40;;;;;;;;;;5039687;28;20127;-83
2023/10/14 09:24:55;;;;;;;1.20;0.43;;;;;;;;;;5057489;28;20099;-83
2023/10/14 09:27:22;;;;;;;3.55;0.82;;;;;;;;;;5057219;28;20567;-82
2023/10/14 09:29:49;;;;;;;0.32;0.30;;;;;;;;;;5034764;28;20567;-83
2023/10/14 09:32:17;;;;;;;1.52;0.40;;;;;;;;;;5036589;28;20041;-83
2023/10/14 09:34:45;;;;;;;1.48;0.90;;;;;;;;;;5057247;28;20124;-83
2023/10/14 09:37:13;;;;;;;4.03;0.80;;;;;;;;;;5039417;28;20530;-83
2023/10/14 09:39:44;;;;;;;1.45;0.70;;;;;;;;;;5038380;28;20499;-83
2023/10/14 09:42:12;;;;;;;2.72;0.82;;;;;;;;;;5038512;28;20421;-83
2023/10/14 09:44:43;;;;;;;3.42;0.90;;;;;;;;;;5038135;28;20049;-82
2023/10/14 09:47:13;;;;;;;1.50;0.68;;;;;;;;;;5056116;28;20576;-81
2023/10/14 09:49:41;;;;;;;3.25;1.17;;;;;;;;;;5039145;28;20527;-82
2023/10/14 09:52:14;;;;;;;3.08;0.88;;;;;;;;;;5056141;28;20084;-82
2023/10/14 09:54:42;;;;;;;4.47;1.05;;;;;;;;;;5056627;28;20048;-82
2023/10/14 09:57:13;;;;;;;4.03;0.70;;;;;;;;;;5037779;28;20045;-85
2023/10/14 09:59:41;;;;;;;4.28;0.90;;;;;;;;;;5048097;28;20111;-83
2023/10/14 10:02:09;;;;;;;5.43;2.75;;;;;;;;;;5056370;28;20080;-83
2023/10/14 10:04:40;;;;;;;5.95;2.50;;;;;;;;;;5056183;28;20136;-82
2023/10/14 10:07:08;;;;;;;1.67;1.00;;;;;;;;;;5037480;28;20123;-82
2023/10/14 10:09:57;;;;;;;7.10;2.80;;;;;;;;;;5055806;28;20106;-82
2023/10/14 10:12:25;;;;;;;7.22;1.50;;;;;;;;;;5038843;28;20129;-83
2023/10/14 10:15:03;;;;;;;4.65;1.80;;;;;;;;;;5038943;28;20484;-81
2023/10/14 10:17:33;;;;;;;4.10;0.80;;;;;;;;;;5038844;28;20094;-83
2023/10/14 10:20:09;;;;;;;3.15;0.95;;;;;;;;;;5056082;28;20060;-82
2023/10/14 10:22:43;;;;;;;2.85;0.88;;;;;;;;;;5038514;28;20053;-82
2023/10/14 10:25:14;;;;;;;3.75;1.00;;;;;;;;;;5056421;28;20053;-84
2023/10/14 10:27:42;;;;;;;4.63;0.90;;;;;;;;;;5049178;28;20048;-82
2023/10/14 10:30:13;;;;;;;4.22;0.88;;;;;;;;;;5031113;28;20492;-83
2023/10/14 10:32:46;;;;;;;3.40;0.68;;;;;;;;;;5035397;28;20041;-84
2023/10/14 10:35:16;;;;;;;4.47;1.33;;;;;;;;;;5027202;28;20049;-82
2023/10/14 10:37:57;;;;;;;7.05;1.20;;;;;;;;;;5056744;28;20053;-82
2023/10/14 10:40:28;;;;;;;2.17;1.50;;;;;;;;;;5038467;28;20495;-81
2023/10/14 10:42:57;;;;;;;6.63;1.80;;;;;;;;;;5038414;28;20534;-83
2023/10/14 10:45:31;;;;;;;5.25;1.40;;;;;;;;;;5055830;28;20107;-81
2023/10/14 10:48:00;;;;;;;2.67;0.90;;;;;;;;;;5055750;28;20103;-82
2023/10/14 10:50:28;;;;;;;5.95;1.00;;;;;;;;;;5038456;28;20049;-82
2023/10/14 10:53:08;;;;;;;6.18;1.15;;;;;;;;;;5038611;28;20053;-82
2023/10/14 10:55:36;;;;;;;2.53;1.40;;;;;;;;;;5047605;28;20045;-82
2023/10/14 10:58:04;;;;;;;5.88;1.10;;;;;;;;;;5055540;28;20045;-81
2023/10/14 11:00:31;;;;;;;4.72;1.40;;;;;;;;;;5037890;28;20053;-81
2023/10/14 11:03:02;;;;;;;6.95;1.00;;;;;;;;;;5055979;28;20056;-81
2023/10/14 11:05:33;;;;;;;2.63;0.90;;;;;;;;;;5038067;28;20045;-82
2023/10/14 11:08:03;;;;;;;3.47;0.85;;;;;;;;;;5038408;28;20064;-81
2023/10/14 11:10:34;;;;;;;2.65;0.93;;;;;;;;;;5038506;28;20099;-82
2023/10/14 11:13:01;;;;;;;1.58;1.00;;;;;;;;;;5056168;28;20049;-81
2023/10/14 11:15:31;;;;;;;4.68;0.88;;;;;;;;;;5038239;28;20045;-83
2023/10/14 11:17:59;;;;;;;2.35;0.90;;;;;;;;;;5055919;28;20124;-82
2023/10/14 11:20:32;;;;;;;3.03;1.00;;;;;;;;;;5042664;28;20123;-81
2023/10/14 11:22:59;;;;;;;4.43;0.80;;;;;;;;;;5043030;28;20049;-81
2023/10/14 11:25:35;;;;;;;1.67;0.75;;;;;;;;;;5060567;28;20053;-81
2023/10/14 11:28:05;;;;;;;4.03;1.20;;;;;;;;;;5043013;28;20140;-81
2023/10/14 11:30:33;;;;;;;2.58;1.30;;;;;;;;;;5042737;28;20048;-82
2023/10/14 11:33:00;;;;;;;5.90;1.10;;;;;;;;;;5042394;28;20060;-81
2023/10/14 11:35:30;;;;;;;6.30;1.60;;;;;;;;;;5060218;28;20124;-82
2023/10/14 11:38:00;;;;;;;7.53;1.20;;;;;;;;;;5061208;28;20499;-82
2023/10/14 11:40:34;;;;;;;7.80;1.10;;;;;;;;;;5060279;28;20104;-82
2023/10/14 11:43:01;;;;;;;4.65;1.50;;;;;;;;;;5060788;28;20098;-82
2023/10/14 11:45:28;;;;;;;1.92;0.80;;;;;;;;;;5042878;28;20053;-81
2023/10/14 11:47:55;;;;;;;3.90;1.00;;;;;;;;;;5061265;28;20109;-81
2023/10/14 11:50:23;;;;;;;4.05;1.40;;;;;;;;;;5043144;28;20056;-82
2023/10/14 11:52:56;;;;;;;2.10;1.10;;;;;;;;;;5038345;28;20045;-82
2023/10/14 11:55:25;;;;;;;4.20;1.10;;;;;;;;;;5040867;28;20099;-82
2023/10/14 11:57:53;;;;;;;2.75;1.20;;;;;;;;;;5043150;28;20349;-82
2023/10/14 12:00:22;;;;;;;3.00;1.58;;;;;;;;;;5039873;28;20108;-82
2023/10/14 12:02:50;;;;;;;2.50;1.00;;;;;;;;;;5039743;28;20053;-81
2023/10/14 12:05:19;;;;;;;2.97;0.90;;;;;;;;;;5040140;28;20045;-81
2023/10/14 12:07:47;;;;;;;2.22;1.20;;;;;;;;;;5039547;28;20052;-82
2023/10/14 12:10:14;;;;;;;6.30;1.38;;;;;;;;;;5040111;28;20060;-84
2023/10/14 12:12:42;;;;;;;3.60;1.30;;;;;;;;;;5041696;28;20046;-82
2023/10/14 12:15:09;;;;;;;3.85;1.27;;;;;;;;;;5041289;28;20076;-82
2023/10/14 12:17:37;;;;;;;6.70;1.13;;;;;;;;;;5041085;28;20069;-82
2023/10/14 12:20:10;;;;;;;2.75;1.30;;;;;;;;;;5040604;28;20542;-82
2023/10/14 12:22:39;;;;;;;6.93;1.60;;;;;;;;;;5037153;28;20049;-82
2023/10/14 12:25:07;;;;;;;2.75;1.10;;;;;;;;;;5036465;28;20109;-84
2023/10/14 12:27:35;;;;;;;4.18;1.55;;;;;;;;;;5033135;28;20061;-82
2023/10/14 12:30:06;;;;;;;4.10;1.15;;;;;;;;;;5043432;28;20102;-82
2023/10/14 12:32:34;;;;;;;3.83;1.20;;;;;;;;;;5043882;28;20068;-81
2023/10/14 12:35:01;;;;;;;3.80;1.38;;;;;;;;;;5043331;28;20562;-81
2023/10/14 12:37:30;;;;;;;2.45;0.93;;;;;;;;;;5042707;28;20438;-81
2023/10/14 12:40:04;;;;;;;4.72;1.30;;;;;;;;;;5035159;28;20129;-81
2023/10/14 12:42:48;;;;;;;2.88;1.35;;;;;;;;;;5034496;28;20060;-81
2023/10/14 12:45:25;;;;;;;10.07;1.65;;;;;;;;;;5034957;28;20049;-81
2023/10/14 12:47:58;;;;;;;4.88;1.30;;;;;;;;;;5033601;28;20519;-81
2023/10/14 12:50:25;;;;;;;5.85;1.88;;;;;;;;;;5033716;28;20526;-81
2023/10/14 12:52:59;;;;;;;2.97;0.95;;;;;;;;;;5034842;28;20128;-82
2023/10/14 12:55:27;;;;;;;3.55;1.23;;;;;;;;;;5037404;28;20064;-82
2023/10/14 12:57:55;;;;;;;4.03;1.23;;;;;;;;;;5040820;28;20580;-84
2023/10/14 13:00:25;;;;;;;4.65;1.35;;;;;;;;;;5043005;28;20057;-81
2023/10/14 13:02:53;;;;;;;5.80;1.20;;;;;;;;;;5038138;28;20049;-82
2023/10/14 13:05:20;;;;;;;6.50;1.67;;;;;;;;;;5029147;28;20503;-83
2023/10/14 13:07:52;;;;;;;2.78;1.23;;;;;;;;;;5038013;28;20060;-81
2023/10/14 13:10:25;;;;;;;6.00;1.20;;;;;;;;;;5029091;28;20284;-81
2023/10/14 13:12:53;;;;;;;2.38;1.17;;;;;;;;;;5037357;28;20496;-82
2023/10/14 13:15:25;;;;;;;4.63;1.20;;;;;;;;;;5034287;28;20045;-81
2023/10/14 13:17:56;;;;;;;3.33;1.45;;;;;;;;;;5036424;28;20045;-81
2023/10/14 13:20:27;;;;;;;2.88;1.55;;;;;;;;;;5029039;28;20073;-81
2023/10/14 13:22:55;;;;;;;4.45;1.30;;;;;;;;;;5034339;28;20429;-81
2023/10/14 13:25:23;;;;;;;3.58;1.20;;;;;;;;;;5034576;28;20053;-81
2023/10/14 13:27:53;;;;;;;4.40;1.30;;;;;;;;;;5030416;28;20401;-82
2023/10/14 13:30:23;;;;;;;2.72;1.20;;;;;;;;;;5031439;28;20089;-81
2023/10/14 13:32:52;;;;;;;4.28;1.30;;;;;;;;;;5035222;28;20042;-80
2023/10/14 13:35:19;;;;;;;3.78;1.20;;;;;;;;;;5029574;28;20056;-82
2023/10/14 13:37:47;;;;;;;4.07;1.30;;;;;;;;;;5035120;28;20049;-82
2023/10/14 13:40:20;;;;;;;3.10;1.27;;;;;;;;;;5034708;28;20049;-83
2023/10/14 13:43:14;;;;;;;7.15;1.50;;;;;;;;;;5035474;28;20045;-82
2023/10/14 13:45:42;;;;;;;4.68;1.40;;;;;;;;;;5035555;28;20053;-82
2023/10/14 13:48:13;;;;;;;4.35;1.20;;;;;;;;;;5035552;28;20087;-84
2023/10/14 13:50:41;;;;;;;3.35;1.08;;;;;;;;;;5030469;28;20086;-82
2023/10/14 13:53:17;;;;;;;3.53;1.25;;;;;;;;;;5036407;28;20063;-82
2023/10/14 13:55:45;;;;;;;4.85;1.13;;;;;;;;;;5034302;28;20079;-82
2023/10/14 13:58:12;;;;;;;2.53;1.23;;;;;;;;;;5034110;28;20045;-82
2023/10/14 14:00:40;;;;;;;3.58;0.90;;;;;;;;;;5030284;28;20555;-83
2023/10/14 14:03:12;;;;;;;3.25;1.13;;;;;;;;;;5022062;28;20108;-82
2023/10/14 14:05:40;;;;;;;6.07;1.40;;;;;;;;;;5033763;28;20107;-81
2023/10/14 14:08:09;;;;;;;6.13;1.30;;;;;;;;;;5034060;28;20519;-82
2023/10/14 14:10:37;;;;;;;4.47;1.30;;;;;;;;;;5033450;28;20444;-81
2023/10/14 14:13:04;;;;;;;6.45;1.30;;;;;;;;;;5033111;28;20120;-81
2023/10/14 14:15:32;;;;;;;3.60;1.20;;;;;;;;;;5033884;28;20049;-82
2023/10/14 14:18:00;;;;;;;3.17;1.00;;;;;;;;;;5037310;28;20053;-82
2023/10/14 14:20:27;;;;;;;4.32;1.35;;;;;;;;;;5032649;28;20475;-81
2023/10/14 14:22:55;;;;;;;3.95;1.20;;;;;;;;;;5033982;28;20099;-81
2023/10/14 14:25:24;;;;;;;3.53;1.15;;;;;;;;;;5031989;28;20045;-81
2023/10/14 14:27:53;;;;;;;2.85;1.10;;;;;;;;;;5032781;28;20050;-82
2023/10/14 14:30:21;;;;;;;5.60;1.42;;;;;;;;;;5024963;28;20057;-81
2023/10/14 14:32:50;;;;;;;3.25;1.48;;;;;;;;;;5033061;28;20111;-81
2023/10/14 14:35:18;;;;;;;4.50;1.35;;;;;;;;;;5033578;28;20435;-83
2023/10/14 14:37:46;;;;;;;4.38;1.10;;;;;;;;;;5032139;28;20099;-81
2023/10/14 14:40:13;;;;;;;5.20;1.17;;;;;;;;;;5033970;28;20049;-81
2023/10/14 14:42:41;;;;;;;5.45;1.52;;;;;;;;;;5034531;28;20045;-80
2023/10/14 14:45:10;;;;;;;2.70;0.93;;;;;;;;;;5034341;28;20052;-81
2023/10/14 14:47:38;;;;;;;3.90;1.33;;;;;;;;;;5032181;28;20697;-81
2023/10/14 14:50:13;;;;;;;4.57;1.55;;;;;;;;;;5032664;28;20560;-81
2023/10/14 14:52:41;;;;;;;5.20;1.42;;;;;;;;;;5032863;28;20554;-81
2023/10/14 14:55:09;;;;;;;3.08;0.95;;;;;;;;;;5032267;28;20518;-82
2023/10/14 14:57:38;;;;;;;2.92;1.20;;;;;;;;;;5031858;28;20488;-81
2023/10/14 15:00:14;;;;;;;4.55;1.23;;;;;;;;;;5031936;28;20415;-81
2023/10/14 15:02:44;;;;;;;4.97;1.60;;;;;;;;;;5032501;28;20050;-81
2023/10/14 15:05:15;;;;;;;2.90;1.20;;;;;;;;;;5032867;28;20088;-80
2023/10/14 15:07:42;;;;;;;13.38;1.75;;;;;;;;;;5032248;28;20068;-80
2023/10/14 15:10:10;;;;;;;4.28;1.75;;;;;;;;;;5032076;28;20100;-81
2023/10/14 15:12:37;;;;;;;5.80;1.98;;;;;;;;;;5031693;28;20062;-81
2023/10/14 15:15:05;;;;;;;8.15;2.80;;;;;;;;;;5033838;28;20049;-81
2023/10/14 15:17:32;;;;;;;5.45;1.58;;;;;;;;;;5032055;28;20108;-81
2023/10/14 15:20:00;;;;;;;7.45;1.65;;;;;;;;;;5031929;28;20124;-81
2023/10/14 15:22:27;;;;;;;7.82;1.55;;;;;;;;;;5032348;28;20057;-81
2023/10/14 15:24:56;;;;;;;4.57;1.33;;;;;;;;;;5031895;28;20562;-80